Loving, New Mexico
Current Conditions -  °F | °C
As of 9:53 PM on Tuesday 25 Nov 2014 (Local Time) from KCNM Reporting Station
Clear Clear  
Wind Chill: 51°   Ceiling: Unl
Heat Index: 51°   Visibility: 10mi
Dew Point:   Wind: 8mph
Humidity: 18%   Direction: 300°WNW
Pressure: 30.12"   Gusts: 20mph
Location:  32.29°N, 104.1°W
Report Text: KCNM 260453Z AUTO 30007G17KT 10SM CLR 11/M13 A3012 RMK AO2 SLP180 T01061133
Loading
Personal Weather Stations






























Interactive Weather Map New forecast layout! Learn more

10-Day Weather Forecast

Advertisements
Track Severe Weather on mobile